createdAt,value
2024-02-05T00:02:12.229Z,5.00
2024-02-05T00:04:39.114Z,5.13
2024-02-05T00:07:06.078Z,5.25
2024-02-05T00:09:33.011Z,5.60
2024-02-05T00:12:01.046Z,5.18
2024-02-05T00:14:28.316Z,5.03
2024-02-05T00:16:55.217Z,5.10
2024-02-05T00:19:22.697Z,5.15
2024-02-05T00:21:49.665Z,4.90
2024-02-05T00:24:16.596Z,4.68
2024-02-05T00:26:43.455Z,4.82
2024-02-05T00:29:10.342Z,4.97
2024-02-05T00:31:37.728Z,4.93
2024-02-05T00:34:04.735Z,4.85
2024-02-05T00:36:31.643Z,5.68
2024-02-05T00:38:58.580Z,4.63
2024-02-05T00:41:25.346Z,4.63
2024-02-05T00:43:52.230Z,4.18
2024-02-05T00:46:23.983Z,4.20
2024-02-05T00:48:51.495Z,4.25
2024-02-05T00:51:18.550Z,3.72
2024-02-05T00:53:45.382Z,4.20
2024-02-05T00:56:14.775Z,4.18
2024-02-05T00:58:41.909Z,4.72
2024-02-05T01:01:08.867Z,4.13
2024-02-05T01:03:35.920Z,4.28
2024-02-05T01:06:05.049Z,4.40
2024-02-05T01:08:32.282Z,4.88
2024-02-05T01:10:59.095Z,5.13
2024-02-05T01:13:26.166Z,5.85
2024-02-05T01:15:53.018Z,5.40
2024-02-05T01:18:20.018Z,5.82
2024-02-05T01:20:47.082Z,5.20
2024-02-05T01:23:14.762Z,5.70
2024-02-05T01:25:42.082Z,5.85
2024-02-05T01:28:09.128Z,5.95
2024-02-05T01:30:36.374Z,6.18
2024-02-05T01:33:03.524Z,6.25
2024-02-05T01:35:30.475Z,6.20
2024-02-05T01:37:57.616Z,5.80
2024-02-05T01:40:24.667Z,6.05
2024-02-05T01:42:51.687Z,7.03
2024-02-05T01:45:18.794Z,6.32
2024-02-05T01:47:45.729Z,5.72
2024-02-05T01:50:15.366Z,5.82
2024-02-05T01:53:01.891Z,6.68
2024-02-05T01:55:29.887Z,6.32
2024-02-05T01:57:58.188Z,6.47
2024-02-05T02:00:26.709Z,6.88
2024-02-05T02:02:53.853Z,6.50
2024-02-05T02:05:21.308Z,7.03
2024-02-05T02:07:48.910Z,6.70
2024-02-05T02:10:15.851Z,6.85
2024-02-05T02:12:42.941Z,6.72
2024-02-05T02:15:10.046Z,6.32
2024-02-05T02:17:41.422Z,7.22
2024-02-05T02:20:11.126Z,6.47
2024-02-05T02:22:58.863Z,7.18
2024-02-05T02:25:26.268Z,7.60
2024-02-05T02:27:54.430Z,7.72
2024-02-05T02:30:23.125Z,7.13
2024-02-05T02:33:47.158Z,6.55
2024-02-05T02:36:23.032Z,7.65
2024-02-05T02:38:56.038Z,7.78
2024-02-05T02:41:31.544Z,6.88
2024-02-05T02:44:02.838Z,6.20
2024-02-05T02:46:30.384Z,6.25
2024-02-05T02:48:57.738Z,6.72
2024-02-05T02:51:25.198Z,7.03
2024-02-05T02:53:52.130Z,7.03
2024-02-05T02:56:19.896Z,7.57
2024-02-05T02:58:46.906Z,7.55
2024-02-05T03:01:14.192Z,8.00
2024-02-05T03:03:43.423Z,8.10
2024-02-05T03:06:10.438Z,7.80
2024-02-05T03:08:37.295Z,8.05
2024-02-05T03:11:04.233Z,8.55
2024-02-05T03:13:31.105Z,8.35
2024-02-05T03:15:58.168Z,8.18
2024-02-05T03:18:25.077Z,9.07
2024-02-05T03:20:51.889Z,8.93
2024-02-05T03:23:19.053Z,8.68
2024-02-05T03:25:45.982Z,8.35
2024-02-05T03:28:12.910Z,8.35
2024-02-05T03:30:42.423Z,8.55
2024-02-05T03:33:09.547Z,9.25
2024-02-05T03:35:36.995Z,9.68
2024-02-05T03:38:04.072Z,8.30
2024-02-05T03:40:30.990Z,9.05
2024-02-05T03:42:57.919Z,8.70
2024-02-05T03:45:24.730Z,10.23
2024-02-05T03:47:51.631Z,10.30
2024-02-05T03:50:18.967Z,9.27
2024-02-05T03:52:49.447Z,9.63
2024-02-05T03:55:16.670Z,9.68
2024-02-05T03:57:47.010Z,7.78
2024-02-05T04:00:14.508Z,7.90
2024-02-05T04:02:44.167Z,7.82
2024-02-05T04:05:11.116Z,8.35
2024-02-05T04:07:38.517Z,8.48
2024-02-05T04:10:06.229Z,7.88
2024-02-05T04:12:33.096Z,8.52
2024-02-05T04:14:59.906Z,7.80
2024-02-05T04:17:27.562Z,8.07
2024-02-05T04:19:54.487Z,7.97
2024-02-05T04:22:21.531Z,7.93
2024-02-05T04:24:48.577Z,7.38
2024-02-05T04:27:16.000Z,8.27
2024-02-05T04:29:43.095Z,8.05
2024-02-05T04:32:11.518Z,7.78
2024-02-05T04:34:38.556Z,6.88
2024-02-05T04:37:05.932Z,7.47
2024-02-05T04:39:32.914Z,7.38
2024-02-05T04:41:59.776Z,7.35
2024-02-05T04:44:26.576Z,7.32
2024-02-05T04:46:53.567Z,6.82
2024-02-05T04:49:20.558Z,8.27
2024-02-05T04:51:51.271Z,7.28
2024-02-05T04:54:18.497Z,8.25
2024-02-05T04:56:45.727Z,7.50
2024-02-05T04:59:12.560Z,7.38
2024-02-05T05:01:39.498Z,7.22
2024-02-05T05:04:06.547Z,7.63
2024-02-05T05:06:33.593Z,7.47
2024-02-05T05:09:00.490Z,7.63
2024-02-05T05:11:27.631Z,7.38
2024-02-05T05:13:54.452Z,7.45
2024-02-05T05:16:22.438Z,7.53
2024-02-05T05:18:49.509Z,7.30
2024-02-05T05:21:16.449Z,8.02
2024-02-05T05:23:43.872Z,7.60
2024-02-05T05:26:11.104Z,7.45
2024-02-05T05:28:41.735Z,8.07
2024-02-05T05:31:08.842Z,7.68
2024-02-05T05:33:37.549Z,7.97
2024-02-05T05:36:05.327Z,7.90
2024-02-05T05:38:32.136Z,8.25
2024-02-05T05:40:59.025Z,8.20
2024-02-05T05:43:25.943Z,8.43
2024-02-05T05:45:53.118Z,7.35
2024-02-05T05:48:20.101Z,8.25
2024-02-05T05:50:46.973Z,7.47
2024-02-05T05:53:13.821Z,7.82
2024-02-05T05:55:41.266Z,7.32
2024-02-05T05:58:08.152Z,8.00
2024-02-05T06:00:35.233Z,8.55
2024-02-05T06:03:02.123Z,9.18
2024-02-05T06:05:29.073Z,8.30
2024-02-05T06:07:55.955Z,8.20
2024-02-05T06:10:22.948Z,8.65
2024-02-05T06:12:50.037Z,8.55
2024-02-05T06:15:17.253Z,9.13
2024-02-05T06:17:44.343Z,8.63
2024-02-05T06:20:15.223Z,10.65
2024-02-05T06:22:44.417Z,9.57
2024-02-05T06:25:11.683Z,8.98
2024-02-05T06:27:38.705Z,7.85
2024-02-05T06:30:07.258Z,9.23
2024-02-05T06:32:34.542Z,8.55
2024-02-05T06:35:02.617Z,8.65
2024-02-05T06:37:29.965Z,8.18
2024-02-05T06:39:56.991Z,8.25
2024-02-05T06:42:24.365Z,8.90
2024-02-05T06:44:52.802Z,8.52
2024-02-05T06:47:19.825Z,8.80
2024-02-05T06:49:46.793Z,7.53
2024-02-05T06:52:13.739Z,8.10
2024-02-05T06:54:40.644Z,8.20
2024-02-05T06:57:07.506Z,8.45
2024-02-05T06:59:34.442Z,7.78
2024-02-05T07:02:01.537Z,8.00
2024-02-05T07:04:28.513Z,8.35
2024-02-05T07:06:55.709Z,7.90
2024-02-05T07:09:23.454Z,8.35
2024-02-05T07:11:50.835Z,7.72
2024-02-05T07:14:17.702Z,8.43
2024-02-05T07:16:44.760Z,8.35
2024-02-05T07:19:11.820Z,6.97
2024-02-05T07:21:38.832Z,8.05
2024-02-05T07:24:05.945Z,7.45
2024-02-05T07:26:35.589Z,8.20
2024-02-05T07:29:02.494Z,6.93
2024-02-05T07:31:30.024Z,8.02
2024-02-05T07:33:58.764Z,8.32
2024-02-05T07:36:27.959Z,7.72
2024-02-05T07:38:55.626Z,7.50
2024-02-05T07:41:22.421Z,8.63
2024-02-05T07:43:49.247Z,7.15
2024-02-05T07:46:16.280Z,8.45
2024-02-05T07:48:43.328Z,8.35
2024-02-05T07:51:10.294Z,7.03
2024-02-05T07:53:37.422Z,7.95
2024-02-05T07:56:10.116Z,7.70
2024-02-05T07:58:38.445Z,9.25
2024-02-05T08:01:05.938Z,8.38
2024-02-05T08:03:33.532Z,7.47
2024-02-05T08:06:04.692Z,7.80
2024-02-05T08:08:31.552Z,7.72
2024-02-05T08:10:58.421Z,8.50
2024-02-05T08:13:25.477Z,7.88
2024-02-05T08:15:52.841Z,7.90
2024-02-05T08:18:20.030Z,6.85
2024-02-05T08:20:47.241Z,6.82
2024-02-05T08:23:14.491Z,7.18
2024-02-05T08:25:41.632Z,7.82
2024-02-05T08:28:08.654Z,6.65
2024-02-05T08:30:35.485Z,7.72
2024-02-05T08:33:02.823Z,8.63
2024-02-05T08:35:29.953Z,8.00
2024-02-05T08:37:56.834Z,8.15
2024-02-05T08:40:23.876Z,8.45
2024-02-05T08:42:50.849Z,7.78
2024-02-05T08:45:19.981Z,7.50
2024-02-05T08:47:47.681Z,8.63
2024-02-05T08:50:15.583Z,9.45
2024-02-05T08:52:42.798Z,8.43
2024-02-05T08:55:10.387Z,7.43
2024-02-05T08:57:38.249Z,8.15
2024-02-05T09:00:10.671Z,7.97
2024-02-05T09:02:38.351Z,8.98
2024-02-05T09:05:06.215Z,7.65
2024-02-05T09:07:33.590Z,7.45
2024-02-05T09:10:00.600Z,7.18
2024-02-05T09:12:27.515Z,7.47
2024-02-05T09:14:55.616Z,7.63
2024-02-05T09:17:22.554Z,7.55
2024-02-05T09:19:50.022Z,8.05
2024-02-05T09:22:17.702Z,7.55
2024-02-05T09:24:45.702Z,7.35
2024-02-05T09:27:13.199Z,8.43
2024-02-05T09:29:40.045Z,6.95
2024-02-05T09:32:07.030Z,8.52
2024-02-05T09:34:34.724Z,8.10
2024-02-05T09:37:01.850Z,7.40
2024-02-05T09:39:29.116Z,8.93
2024-02-05T09:42:01.418Z,8.27
2024-02-05T09:44:29.458Z,7.03
2024-02-05T09:46:57.484Z,8.32
2024-02-05T09:49:24.798Z,7.15
2024-02-05T09:51:52.577Z,7.63
2024-02-05T09:54:22.761Z,7.05
2024-02-05T09:56:52.452Z,7.13
2024-02-05T09:59:19.596Z,8.32
2024-02-05T10:01:47.404Z,7.03
2024-02-05T10:04:16.429Z,7.65
2024-02-05T10:06:46.835Z,9.20
2024-02-05T10:09:13.897Z,7.38
2024-02-05T10:11:50.210Z,6.95
2024-02-05T10:14:17.467Z,7.70
2024-02-05T10:16:44.615Z,7.93
2024-02-05T10:19:11.835Z,8.02
2024-02-05T10:21:38.840Z,7.90
2024-02-05T10:24:06.152Z,6.95
2024-02-05T10:26:33.095Z,8.52
2024-02-05T10:29:07.857Z,7.78
2024-02-05T10:31:43.484Z,9.48
2024-02-05T10:34:17.707Z,7.60
2024-02-05T10:36:45.242Z,7.18
2024-02-05T10:39:26.976Z,6.70
2024-02-05T10:41:56.326Z,7.80
2024-02-05T10:44:33.799Z,6.75
2024-02-05T10:47:07.891Z,7.18
2024-02-05T10:49:35.490Z,7.80
2024-02-05T10:52:04.953Z,8.13
2024-02-05T10:54:34.722Z,8.13
2024-02-05T10:57:02.356Z,8.60
2024-02-05T10:59:29.183Z,7.63
2024-02-05T11:02:05.204Z,8.05
2024-02-05T11:04:33.110Z,6.82
2024-02-05T11:07:03.267Z,7.47
2024-02-05T11:09:33.755Z,8.55
2024-02-05T11:12:03.394Z,6.78
2024-02-05T11:14:32.314Z,7.15
2024-02-05T11:17:00.545Z,6.10
2024-02-05T11:19:31.794Z,6.70
2024-02-05T11:22:04.803Z,6.25
2024-02-05T11:24:34.050Z,6.70
2024-02-05T11:27:05.718Z,7.38
2024-02-05T11:29:33.419Z,6.80
2024-02-05T11:32:00.991Z,6.97
2024-02-05T11:34:38.771Z,7.13
2024-02-05T11:37:26.338Z,6.70
2024-02-05T11:39:55.999Z,6.72
2024-02-05T11:42:23.086Z,6.43
2024-02-05T11:44:50.758Z,7.10
2024-02-05T11:47:18.212Z,6.70
2024-02-05T11:49:45.906Z,7.28
2024-02-05T11:52:13.814Z,6.85
2024-02-05T11:54:41.553Z,6.80
2024-02-05T11:57:08.901Z,6.40
2024-02-05T11:59:36.180Z,6.15
2024-02-05T12:02:04.514Z,6.90
2024-02-05T12:04:32.369Z,6.60
2024-02-05T12:06:59.450Z,6.75
2024-02-05T12:09:27.242Z,7.65
2024-02-05T12:11:54.473Z,8.02
2024-02-05T12:14:22.100Z,8.32
2024-02-05T12:16:49.245Z,8.35
2024-02-05T12:19:27.443Z,9.02
2024-02-05T12:21:54.906Z,9.63
2024-02-05T12:24:22.367Z,9.40
2024-02-05T12:26:49.458Z,9.00
2024-02-05T12:29:24.813Z,9.15
2024-02-05T12:31:56.604Z,9.88
2024-02-05T12:34:24.688Z,8.50
2024-02-05T12:36:52.169Z,9.68
2024-02-05T12:39:22.024Z,10.23
2024-02-05T12:41:50.432Z,10.10
2024-02-05T12:44:23.366Z,10.38
2024-02-05T12:46:59.960Z,11.25
2024-02-05T12:49:27.426Z,11.55
2024-02-05T12:51:55.157Z,10.68
2024-02-05T12:54:23.645Z,11.32
2024-02-05T12:56:52.110Z,10.13
2024-02-05T12:59:19.747Z,11.30
2024-02-05T13:01:59.248Z,10.95
2024-02-05T13:04:28.573Z,10.98
2024-02-05T13:07:13.176Z,11.80
2024-02-05T13:09:42.435Z,11.55
2024-02-05T13:12:09.702Z,12.35
2024-02-05T13:14:37.042Z,11.00
2024-02-05T13:17:06.530Z,10.25
2024-02-05T13:19:34.406Z,9.48
2024-02-05T13:22:01.848Z,10.35
2024-02-05T13:24:29.109Z,9.90
2024-02-05T13:26:56.206Z,10.43
2024-02-05T13:29:26.354Z,9.80
2024-02-05T13:31:53.991Z,10.02
2024-02-05T13:34:28.200Z,8.23
2024-02-05T13:36:55.934Z,9.00
2024-02-05T13:39:24.242Z,9.15
2024-02-05T13:41:51.426Z,9.15
2024-02-05T13:44:21.517Z,9.07
2024-02-05T13:46:49.436Z,8.45
2024-02-05T13:49:16.517Z,8.50
2024-02-05T13:51:43.558Z,8.27
2024-02-05T13:54:10.473Z,8.18
2024-02-05T13:56:37.324Z,7.75
2024-02-05T13:59:04.488Z,7.95
2024-02-05T14:01:31.575Z,7.90
2024-02-05T14:03:58.857Z,8.55
2024-02-05T14:06:26.380Z,7.90
2024-02-05T14:08:53.566Z,7.00
2024-02-05T14:11:21.318Z,7.03
2024-02-05T14:13:49.037Z,7.55
2024-02-05T14:16:16.509Z,8.05
2024-02-05T14:18:44.509Z,8.30
2024-02-05T14:21:12.060Z,6.95
2024-02-05T14:23:39.111Z,7.70
2024-02-05T14:26:06.415Z,8.18
2024-02-05T14:28:33.348Z,8.85
2024-02-05T14:31:00.309Z,7.00
2024-02-05T14:33:27.386Z,7.45
2024-02-05T14:35:54.558Z,7.40
2024-02-05T14:38:21.492Z,8.00
2024-02-05T14:40:49.664Z,7.75
2024-02-05T14:43:16.854Z,7.38
2024-02-05T14:45:43.939Z,7.90
2024-02-05T14:48:12.057Z,8.75
2024-02-05T14:50:39.114Z,7.80
2024-02-05T14:53:06.492Z,7.10
2024-02-05T14:55:33.433Z,7.97
2024-02-05T14:58:01.459Z,6.75
2024-02-05T15:00:28.369Z,6.93
2024-02-05T15:02:55.342Z,6.72
2024-02-05T15:05:22.625Z,6.57
2024-02-05T15:07:49.862Z,7.30
2024-02-05T15:10:16.964Z,7.07
2024-02-05T15:12:44.226Z,6.55
2024-02-05T15:15:11.640Z,7.95
2024-02-05T15:17:38.855Z,6.78
2024-02-05T15:20:07.962Z,7.20
2024-02-05T15:22:35.603Z,7.32
2024-02-05T15:25:04.243Z,7.47
2024-02-05T15:27:31.374Z,7.18
2024-02-05T15:29:58.433Z,7.80
2024-02-05T15:32:27.164Z,7.22
2024-02-05T15:34:54.566Z,8.75
2024-02-05T15:37:21.705Z,6.93
2024-02-05T15:39:49.096Z,6.85
2024-02-05T15:42:16.111Z,7.28
2024-02-05T15:44:45.285Z,7.03
2024-02-05T15:47:13.686Z,7.88
2024-02-05T15:49:40.908Z,9.25
2024-02-05T15:52:08.021Z,7.25
2024-02-05T15:54:35.178Z,7.50
2024-02-05T15:57:01.971Z,7.20
2024-02-05T15:59:28.943Z,8.00
2024-02-05T16:01:55.996Z,6.70
2024-02-05T16:04:27.999Z,6.45
2024-02-05T16:06:55.465Z,8.18
2024-02-05T16:09:22.472Z,7.50
2024-02-05T16:11:49.429Z,6.60
2024-02-05T16:14:17.770Z,7.45
2024-02-05T16:16:44.657Z,6.95
2024-02-05T16:19:16.207Z,7.50
2024-02-05T16:21:48.980Z,7.18
2024-02-05T16:24:16.263Z,6.60
2024-02-05T16:26:43.289Z,7.45
2024-02-05T16:29:10.370Z,6.13
2024-02-05T16:31:37.302Z,7.53
2024-02-05T16:34:04.504Z,6.95
2024-02-05T16:36:31.642Z,6.82
2024-02-05T16:38:59.161Z,6.50
2024-02-05T16:41:26.246Z,8.27
2024-02-05T16:43:53.181Z,7.93
2024-02-05T16:46:20.437Z,6.00
2024-02-05T16:48:47.723Z,6.88
2024-02-05T16:51:14.892Z,7.22
2024-02-05T16:53:42.569Z,7.22
2024-02-05T16:56:11.021Z,7.78
2024-02-05T16:58:38.561Z,7.05
2024-02-05T17:01:05.731Z,6.50
2024-02-05T17:03:33.158Z,7.15
2024-02-05T17:06:00.103Z,6.72
2024-02-05T17:08:27.154Z,7.05
2024-02-05T17:10:54.360Z,7.88
2024-02-05T17:13:21.472Z,6.90
2024-02-05T17:15:49.959Z,7.70
2024-02-05T17:18:17.712Z,7.03
2024-02-05T17:20:45.133Z,6.93
2024-02-05T17:23:12.572Z,6.32
2024-02-05T17:25:39.732Z,7.35
2024-02-05T17:28:07.042Z,7.18
2024-02-05T17:30:34.187Z,7.70
2024-02-05T17:33:01.323Z,6.40
2024-02-05T17:35:28.837Z,6.50
2024-02-05T17:37:55.758Z,8.25
2024-02-05T17:40:22.789Z,7.00
2024-02-05T17:42:49.883Z,7.07
2024-02-05T17:45:17.379Z,7.15
2024-02-05T17:47:44.765Z,6.07
2024-02-05T17:50:12.336Z,7.18
2024-02-05T17:52:51.182Z,7.38
2024-02-05T17:55:21.047Z,8.70
2024-02-05T17:57:49.056Z,7.68
2024-02-05T18:00:16.843Z,7.72
2024-02-05T18:02:43.910Z,8.57
2024-02-05T18:05:11.049Z,7.45
2024-02-05T18:07:38.161Z,8.13
2024-02-05T18:10:05.821Z,7.72
2024-02-05T18:12:32.916Z,7.28
2024-02-05T18:15:00.272Z,7.90
2024-02-05T18:17:27.123Z,7.30
2024-02-05T18:19:54.125Z,7.38
2024-02-05T18:22:21.171Z,7.45
2024-02-05T18:24:51.227Z,7.25
2024-02-05T18:27:18.793Z,7.75
2024-02-05T18:29:46.002Z,8.52
2024-02-05T18:32:13.088Z,7.45
2024-02-05T18:34:44.775Z,6.97
2024-02-05T18:37:14.442Z,7.80
2024-02-05T18:39:41.530Z,8.13
2024-02-05T18:42:09.094Z,7.88
2024-02-05T18:44:36.652Z,8.45
2024-02-05T18:47:04.342Z,6.90
2024-02-05T18:49:31.560Z,8.82
2024-02-05T18:51:59.536Z,7.57
2024-02-05T18:54:26.878Z,7.35
2024-02-05T18:56:53.877Z,8.10
2024-02-05T18:59:21.501Z,7.10
2024-02-05T19:01:48.587Z,7.07
2024-02-05T19:04:15.831Z,8.07
2024-02-05T19:06:43.148Z,7.05
2024-02-05T19:09:11.707Z,7.65
2024-02-05T19:11:38.957Z,7.25
2024-02-05T19:14:06.403Z,7.43
2024-02-05T19:16:33.952Z,6.95
2024-02-05T19:19:01.202Z,8.13
2024-02-05T19:21:28.343Z,7.78
2024-02-05T19:23:57.717Z,7.05
2024-02-05T19:26:24.927Z,8.90
2024-02-05T19:28:55.484Z,8.23
2024-02-05T19:31:22.875Z,8.30
2024-02-05T19:33:50.371Z,7.65
2024-02-05T19:36:17.783Z,8.00
2024-02-05T19:38:44.672Z,8.25
2024-02-05T19:41:15.456Z,7.43
2024-02-05T19:43:42.658Z,8.40
2024-02-05T19:46:10.135Z,7.80
2024-02-05T19:48:37.674Z,7.82
2024-02-05T19:51:04.824Z,8.65
2024-02-05T19:53:32.033Z,8.57
2024-02-05T19:55:58.864Z,8.15
2024-02-05T19:58:27.124Z,7.43
2024-02-05T20:00:54.336Z,7.55
2024-02-05T20:03:21.719Z,8.35
2024-02-05T20:05:48.912Z,7.95
2024-02-05T20:08:16.048Z,8.35
2024-02-05T20:10:43.250Z,8.80
2024-02-05T20:13:11.437Z,8.32
2024-02-05T20:15:38.773Z,8.10
2024-02-05T20:18:06.074Z,8.15
2024-02-05T20:20:34.185Z,8.73
2024-02-05T20:23:01.436Z,8.40
2024-02-05T20:25:28.602Z,7.70
2024-02-05T20:27:55.866Z,7.90
2024-02-05T20:30:23.379Z,8.45
2024-02-05T20:32:50.844Z,7.82
2024-02-05T20:35:19.070Z,8.23
2024-02-05T20:37:46.207Z,8.05
2024-02-05T20:40:14.113Z,7.15
2024-02-05T20:42:41.268Z,7.28
2024-02-05T20:45:08.658Z,7.22
2024-02-05T20:47:35.870Z,7.45
2024-02-05T20:50:03.254Z,7.88
2024-02-05T20:52:33.365Z,6.95
2024-02-05T20:55:00.871Z,7.63
2024-02-05T20:57:27.881Z,7.40
2024-02-05T20:59:55.039Z,7.63
2024-02-05T21:02:22.028Z,7.82
2024-02-05T21:04:49.824Z,7.78
2024-02-05T21:07:19.032Z,7.75
2024-02-05T21:09:46.306Z,7.47
2024-02-05T21:12:13.780Z,7.82
2024-02-05T21:14:41.463Z,7.15
2024-02-05T21:17:09.608Z,7.40
2024-02-05T21:19:37.122Z,7.13
2024-02-05T21:22:05.874Z,7.75
2024-02-05T21:24:33.041Z,7.40
2024-02-05T21:27:01.875Z,9.00
2024-02-05T21:29:28.976Z,8.43
2024-02-05T21:31:55.943Z,8.32
2024-02-05T21:34:24.247Z,8.95
2024-02-05T21:36:52.493Z,9.18
2024-02-05T21:39:19.492Z,8.32
2024-02-05T21:41:46.448Z,9.48
2024-02-05T21:44:13.355Z,9.23
2024-02-05T21:46:40.682Z,10.13
2024-02-05T21:49:08.220Z,10.15
2024-02-05T21:51:35.376Z,11.10
2024-02-05T21:54:02.535Z,11.07
2024-02-05T21:56:29.412Z,11.07
2024-02-05T21:58:56.624Z,11.90
2024-02-05T22:01:23.728Z,11.48
2024-02-05T22:03:50.968Z,10.55
2024-02-05T22:06:17.902Z,11.35
2024-02-05T22:08:44.976Z,11.93
2024-02-05T22:11:12.125Z,11.15
2024-02-05T22:13:39.402Z,11.32
2024-02-05T22:16:06.572Z,11.25
2024-02-05T22:18:34.004Z,12.70
2024-02-05T22:21:02.102Z,11.95
2024-02-05T22:23:29.821Z,12.18
2024-02-05T22:25:57.208Z,11.57
2024-02-05T22:28:24.331Z,12.63
2024-02-05T22:30:53.246Z,12.23
2024-02-05T22:33:20.389Z,12.80
2024-02-05T22:35:48.652Z,13.00
2024-02-05T22:38:16.334Z,11.90
2024-02-05T22:40:43.418Z,11.30
2024-02-05T22:43:11.664Z,11.40
2024-02-05T22:45:39.933Z,11.80
2024-02-05T22:48:08.036Z,11.40
2024-02-05T22:50:35.402Z,12.43
2024-02-05T22:53:02.224Z,11.82
2024-02-05T22:55:29.209Z,11.25
2024-02-05T22:57:56.118Z,10.90
2024-02-05T23:00:25.770Z,11.35
2024-02-05T23:02:53.533Z,11.38
2024-02-05T23:05:21.628Z,11.68
2024-02-05T23:07:49.457Z,11.88
2024-02-05T23:10:17.242Z,12.55
2024-02-05T23:12:44.176Z,12.52
2024-02-05T23:15:11.222Z,12.07
2024-02-05T23:17:38.079Z,11.57
2024-02-05T23:20:05.664Z,12.00
2024-02-05T23:22:32.843Z,11.68
2024-02-05T23:24:59.720Z,12.20
2024-02-05T23:27:26.585Z,11.35
2024-02-05T23:29:53.386Z,11.07
2024-02-05T23:32:20.296Z,12.57
2024-02-05T23:34:48.416Z,11.50
2024-02-05T23:37:24.644Z,10.60
2024-02-05T23:39:51.587Z,11.00
2024-02-05T23:42:18.505Z,11.43
2024-02-05T23:44:45.316Z,10.80
2024-02-05T23:47:14.921Z,10.70
2024-02-05T23:49:41.956Z,10.68
2024-02-05T23:52:09.011Z,10.82
2024-02-05T23:54:35.912Z,11.05
2024-02-05T23:57:02.723Z,11.57
2024-02-05T23:59:29.615Z,10.68
